sensor_id;sensor_type;location;lat;lon;timestamp;pressure;altitude;pressure_sealevel;temperature;humidity
36852;BME280;22784;52.476;13.424;2022-08-19T00:02:11;100315.44;;;26.01;80.36
36852;BME280;22784;52.476;13.424;2022-08-19T00:06:18;100316.47;;;25.98;79.88
36852;BME280;22784;52.476;13.424;2022-08-19T00:10:21;100304.25;;;25.95;80.38
36852;BME280;22784;52.476;13.424;2022-08-19T00:14:28;100338.09;;;26.08;80.51
36852;BME280;22784;52.476;13.424;2022-08-19T00:18:33;100342.41;;;26.09;80.22
36852;BME280;22784;52.476;13.424;2022-08-19T00:22:39;100340.13;;;26.08;80.25
36852;BME280;22784;52.476;13.424;2022-08-19T00:26:44;100315.47;;;25.95;80.30
36852;BME280;22784;52.476;13.424;2022-08-19T00:30:52;100334.28;;;26.06;80.14
36852;BME280;22784;52.476;13.424;2022-08-19T00:34:58;100333.75;;;26.07;79.48
36852;BME280;22784;52.476;13.424;2022-08-19T00:39:03;100322.06;;;26.03;79.35
36852;BME280;22784;52.476;13.424;2022-08-19T00:43:10;100315.72;;;26.03;80.50
36852;BME280;22784;52.476;13.424;2022-08-19T00:47:17;100306.78;;;25.93;81.57
36852;BME280;22784;52.476;13.424;2022-08-19T00:51:20;100311.13;;;25.94;81.77
36852;BME280;22784;52.476;13.424;2022-08-19T00:55:26;100281.91;;;25.79;80.74
36852;BME280;22784;52.476;13.424;2022-08-19T00:59:33;100318.75;;;25.99;80.53
36852;BME280;22784;52.476;13.424;2022-08-19T01:03:43;100296.13;;;25.81;79.88
36852;BME280;22784;52.476;13.424;2022-08-19T01:07:48;100285.47;;;25.74;80.05
36852;BME280;22784;52.476;13.424;2022-08-19T01:11:52;100323.84;;;25.95;80.21
36852;BME280;22784;52.476;13.424;2022-08-19T01:15:58;100300.72;;;25.78;81.72
36852;BME280;22784;52.476;13.424;2022-08-19T01:20:10;100333.28;;;25.87;81.66
36852;BME280;22784;52.476;13.424;2022-08-19T01:24:16;100333.53;;;25.89;81.36
36852;BME280;22784;52.476;13.424;2022-08-19T01:28:23;100328.22;;;25.74;82.74
36852;BME280;22784;52.476;13.424;2022-08-19T01:32:27;100348.56;;;25.80;83.59
36852;BME280;22784;52.476;13.424;2022-08-19T01:36:37;100302.50;;;25.42;85.07
36852;BME280;22784;52.476;13.424;2022-08-19T01:40:45;100316.97;;;25.41;88.97
36852;BME280;22784;52.476;13.424;2022-08-19T01:44:48;100266.59;;;24.91;90.89
36852;BME280;22784;52.476;13.424;2022-08-19T01:48:52;100285.34;;;24.73;93.08
36852;BME280;22784;52.476;13.424;2022-08-19T01:52:56;100270.75;;;24.47;94.03
36852;BME280;22784;52.476;13.424;2022-08-19T01:57:05;100323.69;;;24.73;96.22
36852;BME280;22784;52.476;13.424;2022-08-19T02:01:10;100333.31;;;24.66;97.06
36852;BME280;22784;52.476;13.424;2022-08-19T02:05:14;100266.88;;;24.28;99.77
36852;BME280;22784;52.476;13.424;2022-08-19T02:09:19;100268.03;;;24.16;100.00
36852;BME280;22784;52.476;13.424;2022-08-19T02:13:25;100256.38;;;24.17;100.00
36852;BME280;22784;52.476;13.424;2022-08-19T02:17:29;100238.78;;;24.00;100.00
36852;BME280;22784;52.476;13.424;2022-08-19T02:21:34;100242.50;;;23.86;100.00
36852;BME280;22784;52.476;13.424;2022-08-19T02:25:38;100225.72;;;23.80;100.00
36852;BME280;22784;52.476;13.424;2022-08-19T02:29:45;100235.44;;;23.90;100.00
36852;BME280;22784;52.476;13.424;2022-08-19T02:33:49;100230.63;;;23.91;100.00
36852;BME280;22784;52.476;13.424;2022-08-19T02:37:53;100223.03;;;23.91;100.00
36852;BME280;22784;52.476;13.424;2022-08-19T02:42:09;100210.06;;;23.94;100.00
36852;BME280;22784;52.476;13.424;2022-08-19T02:46:18;100234.72;;;23.95;100.00
36852;BME280;22784;52.476;13.424;2022-08-19T02:50:22;100250.19;;;23.96;100.00
36852;BME280;22784;52.476;13.424;2022-08-19T02:54:26;100245.66;;;24.04;100.00
36852;BME280;22784;52.476;13.424;2022-08-19T02:58:34;100222.50;;;23.93;100.00
36852;BME280;22784;52.476;13.424;2022-08-19T03:02:40;100252.06;;;24.16;100.00
36852;BME280;22784;52.476;13.424;2022-08-19T03:06:45;100224.59;;;24.03;100.00
36852;BME280;22784;52.476;13.424;2022-08-19T03:10:50;100227.91;;;24.07;100.00
36852;BME280;22784;52.476;13.424;2022-08-19T03:14:53;100224.88;;;24.11;99.41
36852;BME280;22784;52.476;13.424;2022-08-19T03:19:08;100219.81;;;24.15;98.64
36852;BME280;22784;52.476;13.424;2022-08-19T03:23:23;100235.66;;;24.35;97.49
36852;BME280;22784;52.476;13.424;2022-08-19T03:27:27;100214.59;;;24.34;96.80
36852;BME280;22784;52.476;13.424;2022-08-19T03:31:31;100241.81;;;24.44;95.92
36852;BME280;22784;52.476;13.424;2022-08-19T03:35:37;100234.72;;;24.49;94.83
36852;BME280;22784;52.476;13.424;2022-08-19T03:39:41;100181.31;;;24.25;94.09
36852;BME280;22784;52.476;13.424;2022-08-19T03:43:45;100220.47;;;24.53;93.44
36852;BME280;22784;52.476;13.424;2022-08-19T03:47:51;100224.03;;;24.53;93.73
36852;BME280;22784;52.476;13.424;2022-08-19T03:51:58;100231.94;;;24.55;92.78
36852;BME280;22784;52.476;13.424;2022-08-19T03:56:08;100221.75;;;24.52;92.84
36852;BME280;22784;52.476;13.424;2022-08-19T04:00:15;100228.66;;;24.62;92.35
36852;BME280;22784;52.476;13.424;2022-08-19T04:04:21;100226.88;;;24.64;92.02
36852;BME280;22784;52.476;13.424;2022-08-19T04:08:27;100230.69;;;24.67;91.75
36852;BME280;22784;52.476;13.424;2022-08-19T04:12:31;100243.41;;;24.68;91.78
36852;BME280;22784;52.476;13.424;2022-08-19T04:16:35;100212.34;;;24.49;91.27
36852;BME280;22784;52.476;13.424;2022-08-19T04:20:43;100250.50;;;24.74;91.08
36852;BME280;22784;52.476;13.424;2022-08-19T04:24:49;100195.31;;;24.36;90.88
36852;BME280;22784;52.476;13.424;2022-08-19T04:28:56;100261.69;;;24.80;90.47
36852;BME280;22784;52.476;13.424;2022-08-19T04:33:01;100236.03;;;24.70;90.81
36852;BME280;22784;52.476;13.424;2022-08-19T04:37:05;100238.84;;;24.87;90.31
36852;BME280;22784;52.476;13.424;2022-08-19T04:41:15;100249.81;;;24.91;89.80
36852;BME280;22784;52.476;13.424;2022-08-19T04:45:36;100247.25;;;24.93;89.65
36852;BME280;22784;52.476;13.424;2022-08-19T04:49:40;100220.03;;;24.82;89.46
36852;BME280;22784;52.476;13.424;2022-08-19T04:53:43;100202.47;;;24.70;89.24
36852;BME280;22784;52.476;13.424;2022-08-19T04:57:49;100237.63;;;25.05;88.22
36852;BME280;22784;52.476;13.424;2022-08-19T05:01:56;100247.03;;;25.18;87.74
36852;BME280;22784;52.476;13.424;2022-08-19T05:06:05;100224.41;;;25.16;87.21
36852;BME280;22784;52.476;13.424;2022-08-19T05:10:10;100209.66;;;25.05;86.56
36852;BME280;22784;52.476;13.424;2022-08-19T05:14:20;100228.72;;;25.34;86.41
36852;BME280;22784;52.476;13.424;2022-08-19T05:18:27;100239.69;;;25.38;85.96
36852;BME280;22784;52.476;13.424;2022-08-19T05:22:45;100227.94;;;25.39;85.42
36852;BME280;22784;52.476;13.424;2022-08-19T05:26:50;100228.22;;;25.47;85.25
36852;BME280;22784;52.476;13.424;2022-08-19T05:30:59;100219.56;;;25.50;84.40
36852;BME280;22784;52.476;13.424;2022-08-19T05:35:04;100220.59;;;25.58;84.43
36852;BME280;22784;52.476;13.424;2022-08-19T05:39:12;100208.13;;;25.59;84.26
36852;BME280;22784;52.476;13.424;2022-08-19T05:43:16;100235.28;;;25.81;83.13
36852;BME280;22784;52.476;13.424;2022-08-19T05:47:22;100218.78;;;25.72;81.89
36852;BME280;22784;52.476;13.424;2022-08-19T05:51:26;100198.44;;;25.55;81.99
36852;BME280;22784;52.476;13.424;2022-08-19T05:55:29;100217.28;;;25.65;81.74
36852;BME280;22784;52.476;13.424;2022-08-19T05:59:33;100205.31;;;25.54;82.41
36852;BME280;22784;52.476;13.424;2022-08-19T06:03:40;100239.63;;;25.77;82.52
36852;BME280;22784;52.476;13.424;2022-08-19T06:07:44;100247.25;;;25.82;81.98
36852;BME280;22784;52.476;13.424;2022-08-19T06:11:50;100245.25;;;25.77;82.13
36852;BME280;22784;52.476;13.424;2022-08-19T06:15:57;100234.06;;;25.65;82.09
36852;BME280;22784;52.476;13.424;2022-08-19T06:20:07;100246.22;;;25.90;81.92
36852;BME280;22784;52.476;13.424;2022-08-19T06:24:17;100236.56;;;25.91;81.32
36852;BME280;22784;52.476;13.424;2022-08-19T06:28:21;100248.22;;;26.01;81.20
36852;BME280;22784;52.476;13.424;2022-08-19T06:32:25;100242.63;;;26.01;80.84
36852;BME280;22784;52.476;13.424;2022-08-19T06:36:34;100247.44;;;26.12;80.78
36852;BME280;22784;52.476;13.424;2022-08-19T06:40:38;100257.34;;;26.24;80.90
36852;BME280;22784;52.476;13.424;2022-08-19T06:44:44;100267.28;;;26.25;80.47
36852;BME280;22784;52.476;13.424;2022-08-19T06:48:49;100266.22;;;26.22;79.85
36852;BME280;22784;52.476;13.424;2022-08-19T06:52:57;100282.06;;;26.25;79.61
36852;BME280;22784;52.476;13.424;2022-08-19T06:57:01;100279.25;;;26.20;79.28
36852;BME280;22784;52.476;13.424;2022-08-19T07:01:06;100296.28;;;26.22;79.81
36852;BME280;22784;52.476;13.424;2022-08-19T07:05:10;100265.03;;;26.01;80.27
36852;BME280;22784;52.476;13.424;2022-08-19T07:09:17;100299.63;;;26.26;80.28
36852;BME280;22784;52.476;13.424;2022-08-19T07:13:21;100301.13;;;26.32;80.36
36852;BME280;22784;52.476;13.424;2022-08-19T07:17:25;100282.75;;;26.42;79.91
36852;BME280;22784;52.476;13.424;2022-08-19T07:21:29;100264.59;;;26.55;79.63
36852;BME280;22784;52.476;13.424;2022-08-19T07:25:35;100278.81;;;26.68;78.94
36852;BME280;22784;52.476;13.424;2022-08-19T07:29:39;100288.16;;;26.81;77.97
36852;BME280;22784;52.476;13.424;2022-08-19T07:33:43;100302.91;;;26.87;78.17
36852;BME280;22784;52.476;13.424;2022-08-19T07:37:47;100302.47;;;26.72;77.15
36852;BME280;22784;52.476;13.424;2022-08-19T07:41:56;100312.91;;;26.77;77.16
36852;BME280;22784;52.476;13.424;2022-08-19T07:46:00;100324.59;;;26.81;77.44
36852;BME280;22784;52.476;13.424;2022-08-19T07:50:08;100295.84;;;26.70;76.60
36852;BME280;22784;52.476;13.424;2022-08-19T07:54:14;100320.50;;;26.88;77.01
36852;BME280;22784;52.476;13.424;2022-08-19T07:58:21;100301.16;;;26.84;76.51
36852;BME280;22784;52.476;13.424;2022-08-19T08:02:25;100328.88;;;26.99;76.91
36852;BME280;22784;52.476;13.424;2022-08-19T08:06:29;100334.00;;;26.95;76.42
36852;BME280;22784;52.476;13.424;2022-08-19T08:10:45;100312.44;;;26.73;76.90
36852;BME280;22784;52.476;13.424;2022-08-19T08:14:53;100353.91;;;26.92;76.52
36852;BME280;22784;52.476;13.424;2022-08-19T08:18:57;100365.88;;;26.86;77.07
36852;BME280;22784;52.476;13.424;2022-08-19T08:23:01;100342.53;;;26.67;76.89
36852;BME280;22784;52.476;13.424;2022-08-19T08:27:17;100357.22;;;26.84;77.24
36852;BME280;22784;52.476;13.424;2022-08-19T08:31:23;100368.97;;;26.88;76.98
36852;BME280;22784;52.476;13.424;2022-08-19T08:35:26;100295.88;;;26.64;76.46
36852;BME280;22784;52.476;13.424;2022-08-19T08:39:30;100351.53;;;27.07;75.59
36852;BME280;22784;52.476;13.424;2022-08-19T08:43:37;100349.13;;;27.22;75.51
36852;BME280;22784;52.476;13.424;2022-08-19T08:47:48;100343.22;;;27.31;74.68
36852;BME280;22784;52.476;13.424;2022-08-19T08:51:59;100357.63;;;27.52;74.49
36852;BME280;22784;52.476;13.424;2022-08-19T08:56:06;100363.94;;;27.58;74.38
36852;BME280;22784;52.476;13.424;2022-08-19T09:00:18;100353.31;;;27.51;74.21
36852;BME280;22784;52.476;13.424;2022-08-19T09:04:25;100363.72;;;27.56;74.48
36852;BME280;22784;52.476;13.424;2022-08-19T09:08:39;100371.41;;;27.50;74.07
36852;BME280;22784;52.476;13.424;2022-08-19T09:12:52;100372.38;;;27.58;74.46
36852;BME280;22784;52.476;13.424;2022-08-19T09:16:58;100344.84;;;27.56;74.01
36852;BME280;22784;52.476;13.424;2022-08-19T09:21:06;100366.81;;;27.82;73.63
36852;BME280;22784;52.476;13.424;2022-08-19T09:25:13;100348.31;;;27.98;73.60
36852;BME280;22784;52.476;13.424;2022-08-19T09:29:17;100343.25;;;28.21;72.04
36852;BME280;22784;52.476;13.424;2022-08-19T09:33:21;100354.81;;;28.36;71.52
36852;BME280;22784;52.476;13.424;2022-08-19T09:37:27;100342.53;;;28.39;71.04
36852;BME280;22784;52.476;13.424;2022-08-19T09:41:31;100349.56;;;28.51;70.45
36852;BME280;22784;52.476;13.424;2022-08-19T09:45:35;100344.56;;;28.63;69.82
36852;BME280;22784;52.476;13.424;2022-08-19T09:49:39;100332.13;;;28.52;69.30
36852;BME280;22784;52.476;13.424;2022-08-19T09:53:46;100344.84;;;28.59;69.09
36852;BME280;22784;52.476;13.424;2022-08-19T09:57:53;100352.28;;;28.57;69.17
36852;BME280;22784;52.476;13.424;2022-08-19T10:01:58;100344.72;;;28.46;69.62
36852;BME280;22784;52.476;13.424;2022-08-19T10:06:03;100344.19;;;28.47;69.30
36852;BME280;22784;52.476;13.424;2022-08-19T10:10:11;100343.22;;;28.45;69.39
36852;BME280;22784;52.476;13.424;2022-08-19T10:14:16;100328.59;;;28.28;70.08
36852;BME280;22784;52.476;13.424;2022-08-19T10:18:23;100343.81;;;28.38;69.95
36852;BME280;22784;52.476;13.424;2022-08-19T10:22:27;100342.88;;;28.30;70.37
36852;BME280;22784;52.476;13.424;2022-08-19T10:26:36;100336.09;;;28.20;70.62
36852;BME280;22784;52.476;13.424;2022-08-19T10:30:40;100317.50;;;28.11;70.28
36852;BME280;22784;52.476;13.424;2022-08-19T10:34:44;100305.34;;;28.03;70.38
36852;BME280;22784;52.476;13.424;2022-08-19T10:38:51;100338.69;;;28.12;70.72
36852;BME280;22784;52.476;13.424;2022-08-19T10:43:00;100308.59;;;27.83;70.93
36852;BME280;22784;52.476;13.424;2022-08-19T10:47:04;100334.84;;;27.91;71.13
36852;BME280;22784;52.476;13.424;2022-08-19T10:51:09;100336.22;;;27.79;71.78
36852;BME280;22784;52.476;13.424;2022-08-19T10:55:25;100336.59;;;27.64;72.06
36852;BME280;22784;52.476;13.424;2022-08-19T10:59:44;100330.56;;;27.54;72.64
36852;BME280;22784;52.476;13.424;2022-08-19T11:03:48;100343.56;;;27.52;73.29
36852;BME280;22784;52.476;13.424;2022-08-19T11:07:52;100350.75;;;27.47;73.70
36852;BME280;22784;52.476;13.424;2022-08-19T11:11:56;100361.72;;;27.45;73.82
36852;BME280;22784;52.476;13.424;2022-08-19T11:16:04;100355.81;;;27.54;72.64
36852;BME280;22784;52.476;13.424;2022-08-19T11:20:11;100338.28;;;27.43;73.02
36852;BME280;22784;52.476;13.424;2022-08-19T11:24:17;100365.00;;;27.55;73.14
36852;BME280;22784;52.476;13.424;2022-08-19T11:28:21;100362.19;;;27.55;73.02
36852;BME280;22784;52.476;13.424;2022-08-19T11:32:27;100329.97;;;27.26;73.05
36852;BME280;22784;52.476;13.424;2022-08-19T11:36:31;100352.88;;;27.36;73.29
36852;BME280;22784;52.476;13.424;2022-08-19T11:40:35;100347.59;;;27.26;73.50
36852;BME280;22784;52.476;13.424;2022-08-19T11:44:39;100364.25;;;27.54;73.38
36852;BME280;22784;52.476;13.424;2022-08-19T11:48:45;100370.13;;;27.86;71.92
36852;BME280;22784;52.476;13.424;2022-08-19T11:52:50;100372.34;;;27.93;70.79
36852;BME280;22784;52.476;13.424;2022-08-19T11:56:56;100374.97;;;27.86;70.83
36852;BME280;22784;52.476;13.424;2022-08-19T12:01:04;100371.56;;;27.63;71.07
36852;BME280;22784;52.476;13.424;2022-08-19T12:05:10;100395.75;;;27.72;72.10
36852;BME280;22784;52.476;13.424;2022-08-19T12:09:14;100394.75;;;27.69;72.62
36852;BME280;22784;52.476;13.424;2022-08-19T12:13:18;100386.41;;;27.58;72.87
36852;BME280;22784;52.476;13.424;2022-08-19T12:17:21;100397.13;;;27.59;72.19
36852;BME280;22784;52.476;13.424;2022-08-19T12:21:28;100397.84;;;27.65;72.06
36852;BME280;22784;52.476;13.424;2022-08-19T12:25:31;100403.56;;;27.84;72.06
36852;BME280;22784;52.476;13.424;2022-08-19T12:29:35;100389.06;;;28.04;70.57
36852;BME280;22784;52.476;13.424;2022-08-19T12:33:39;100400.50;;;28.42;68.80
36852;BME280;22784;52.476;13.424;2022-08-19T12:37:45;100407.72;;;28.37;67.24
36852;BME280;22784;52.476;13.424;2022-08-19T12:41:49;100418.81;;;28.24;68.55
36852;BME280;22784;52.476;13.424;2022-08-19T12:45:53;100406.09;;;28.18;68.58
36852;BME280;22784;52.476;13.424;2022-08-19T12:49:56;100391.22;;;28.71;68.31
36852;BME280;22784;52.476;13.424;2022-08-19T12:54:03;100389.53;;;29.75;62.79
36852;BME280;22784;52.476;13.424;2022-08-19T12:58:09;100382.41;;;30.59;59.46
36852;BME280;22784;52.476;13.424;2022-08-19T13:02:13;100385.88;;;30.65;57.74
36852;BME280;22784;52.476;13.424;2022-08-19T13:06:16;100388.44;;;29.97;58.30
36852;BME280;22784;52.476;13.424;2022-08-19T13:10:25;100407.00;;;29.55;60.36
36852;BME280;22784;52.476;13.424;2022-08-19T13:14:30;100411.50;;;29.26;61.72
36852;BME280;22784;52.476;13.424;2022-08-19T13:18:51;100410.81;;;29.01;62.84
36852;BME280;22784;52.476;13.424;2022-08-19T13:22:55;100383.31;;;28.70;63.47
36852;BME280;22784;52.476;13.424;2022-08-19T13:27:05;100391.09;;;28.58;64.46
36852;BME280;22784;52.476;13.424;2022-08-19T13:31:10;100403.63;;;28.57;64.84
36852;BME280;22784;52.476;13.424;2022-08-19T13:35:26;100403.44;;;28.55;65.40
36852;BME280;22784;52.476;13.424;2022-08-19T13:39:30;100384.41;;;28.42;64.71
36852;BME280;22784;52.476;13.424;2022-08-19T13:43:36;100401.78;;;28.41;64.91
36852;BME280;22784;52.476;13.424;2022-08-19T13:47:40;100386.47;;;28.12;65.04
36852;BME280;22784;52.476;13.424;2022-08-19T13:51:47;100408.19;;;28.11;65.41
36852;BME280;22784;52.476;13.424;2022-08-19T13:55:51;100414.88;;;28.08;66.16
36852;BME280;22784;52.476;13.424;2022-08-19T13:59:57;100397.84;;;27.95;66.14
36852;BME280;22784;52.476;13.424;2022-08-19T14:04:02;100396.38;;;27.89;66.23
36852;BME280;22784;52.476;13.424;2022-08-19T14:08:06;100381.81;;;27.90;66.93
36852;BME280;22784;52.476;13.424;2022-08-19T14:12:10;100396.72;;;28.09;66.71
36852;BME280;22784;52.476;13.424;2022-08-19T14:16:16;100395.31;;;28.22;66.33
36852;BME280;22784;52.476;13.424;2022-08-19T14:20:20;100394.22;;;28.30;65.90
36852;BME280;22784;52.476;13.424;2022-08-19T14:24:24;100396.28;;;28.30;65.16
36852;BME280;22784;52.476;13.424;2022-08-19T14:28:27;100385.91;;;28.19;66.02
36852;BME280;22784;52.476;13.424;2022-08-19T14:32:34;100406.81;;;28.24;66.20
36852;BME280;22784;52.476;13.424;2022-08-19T14:36:38;100407.63;;;28.19;65.62
36852;BME280;22784;52.476;13.424;2022-08-19T14:40:42;100397.16;;;28.19;65.71
36852;BME280;22784;52.476;13.424;2022-08-19T14:44:46;100389.31;;;28.06;65.23
36852;BME280;22784;52.476;13.424;2022-08-19T14:48:53;100402.84;;;28.08;65.59
36852;BME280;22784;52.476;13.424;2022-08-19T14:53:01;100401.91;;;28.00;66.26
36852;BME280;22784;52.476;13.424;2022-08-19T14:57:12;100403.13;;;28.04;65.90
36852;BME280;22784;52.476;13.424;2022-08-19T15:01:16;100373.50;;;27.79;67.02
36852;BME280;22784;52.476;13.424;2022-08-19T15:05:23;100422.38;;;27.95;66.56
36852;BME280;22784;52.476;13.424;2022-08-19T15:09:27;100423.25;;;27.84;67.52
36852;BME280;22784;52.476;13.424;2022-08-19T15:13:31;100436.59;;;27.73;68.49
36852;BME280;22784;52.476;13.424;2022-08-19T15:17:34;100436.91;;;27.63;68.20
36852;BME280;22784;52.476;13.424;2022-08-19T15:21:42;100445.09;;;27.61;68.09
36852;BME280;22784;52.476;13.424;2022-08-19T15:25:46;100456.38;;;27.56;68.41
36852;BME280;22784;52.476;13.424;2022-08-19T15:29:52;100405.25;;;27.22;68.41
36852;BME280;22784;52.476;13.424;2022-08-19T15:33:57;100462.25;;;27.47;68.70
36852;BME280;22784;52.476;13.424;2022-08-19T15:38:03;100448.81;;;27.34;69.15
36852;BME280;22784;52.476;13.424;2022-08-19T15:42:07;100468.91;;;27.44;69.05
36852;BME280;22784;52.476;13.424;2022-08-19T15:46:11;100468.16;;;27.43;68.81
36852;BME280;22784;52.476;13.424;2022-08-19T15:50:19;100433.06;;;27.20;69.15
36852;BME280;22784;52.476;13.424;2022-08-19T15:54:26;100444.50;;;27.27;69.29
36852;BME280;22784;52.476;13.424;2022-08-19T15:58:29;100425.28;;;26.85;70.55
36852;BME280;22784;52.476;13.424;2022-08-19T16:02:46;100450.25;;;26.94;71.84
36852;BME280;22784;52.476;13.424;2022-08-19T16:07:02;100416.72;;;26.55;72.82
36852;BME280;22784;52.476;13.424;2022-08-19T16:11:11;100440.63;;;26.73;73.84
36852;BME280;22784;52.476;13.424;2022-08-19T16:15:22;100446.72;;;26.77;74.03
36852;BME280;22784;52.476;13.424;2022-08-19T16:19:27;100423.84;;;26.62;73.71
36852;BME280;22784;52.476;13.424;2022-08-19T16:23:32;100405.53;;;26.49;73.52
36852;BME280;22784;52.476;13.424;2022-08-19T16:27:38;100466.63;;;26.79;73.36
36852;BME280;22784;52.476;13.424;2022-08-19T16:31:44;100466.84;;;26.81;73.03
36852;BME280;22784;52.476;13.424;2022-08-19T16:35:49;100464.81;;;26.81;73.09
36852;BME280;22784;52.476;13.424;2022-08-19T16:39:53;100457.66;;;26.80;73.11
36852;BME280;22784;52.476;13.424;2022-08-19T16:43:59;100444.72;;;26.72;73.60
36852;BME280;22784;52.476;13.424;2022-08-19T16:48:03;100462.00;;;26.81;73.39
36852;BME280;22784;52.476;13.424;2022-08-19T16:52:07;100413.69;;;26.47;73.56
36852;BME280;22784;52.476;13.424;2022-08-19T16:56:12;100467.34;;;26.85;73.39
36852;BME280;22784;52.476;13.424;2022-08-19T17:00:18;100472.97;;;26.85;73.24
36852;BME280;22784;52.476;13.424;2022-08-19T17:04:22;100447.50;;;26.72;72.95
36852;BME280;22784;52.476;13.424;2022-08-19T17:08:30;100467.38;;;26.79;72.41
36852;BME280;22784;52.476;13.424;2022-08-19T17:12:34;100422.34;;;26.49;73.29
36852;BME280;22784;52.476;13.424;2022-08-19T17:16:41;100390.03;;;26.26;73.72
36852;BME280;22784;52.476;13.424;2022-08-19T17:20:45;100461.03;;;26.68;73.92
36852;BME280;22784;52.476;13.424;2022-08-19T17:24:49;100436.41;;;26.33;74.53
36852;BME280;22784;52.476;13.424;2022-08-19T17:28:54;100469.97;;;26.55;74.61
36852;BME280;22784;52.476;13.424;2022-08-19T17:33:02;100475.84;;;26.52;75.08
36852;BME280;22784;52.476;13.424;2022-08-19T17:37:06;100439.94;;;26.28;74.65
36852;BME280;22784;52.476;13.424;2022-08-19T17:41:09;100465.16;;;26.44;75.20
36852;BME280;22784;52.476;13.424;2022-08-19T17:45:13;100476.13;;;26.37;75.32
36852;BME280;22784;52.476;13.424;2022-08-19T17:49:22;100426.19;;;25.96;75.26
36852;BME280;22784;52.476;13.424;2022-08-19T17:53:26;100484.25;;;26.18;74.88
36852;BME280;22784;52.476;13.424;2022-08-19T17:57:30;100498.75;;;26.22;75.02
36852;BME280;22784;52.476;13.424;2022-08-19T18:01:41;100496.72;;;26.17;74.99
36852;BME280;22784;52.476;13.424;2022-08-19T18:05:47;100494.94;;;26.14;74.78
36852;BME280;22784;52.476;13.424;2022-08-19T18:09:51;100471.78;;;25.86;74.90
36852;BME280;22784;52.476;13.424;2022-08-19T18:13:54;100506.91;;;26.09;74.62
36852;BME280;22784;52.476;13.424;2022-08-19T18:18:01;100511.00;;;26.08;75.12
36852;BME280;22784;52.476;13.424;2022-08-19T18:22:16;100514.78;;;26.05;74.67
36852;BME280;22784;52.476;13.424;2022-08-19T18:26:26;100508.94;;;26.03;75.00
36852;BME280;22784;52.476;13.424;2022-08-19T18:30:30;100515.06;;;26.01;74.94
36852;BME280;22784;52.476;13.424;2022-08-19T18:34:37;100517.34;;;25.97;74.89
36852;BME280;22784;52.476;13.424;2022-08-19T18:38:43;100487.53;;;25.78;75.01
36852;BME280;22784;52.476;13.424;2022-08-19T18:43:02;100491.59;;;25.71;75.21
36852;BME280;22784;52.476;13.424;2022-08-19T18:47:18;100542.78;;;25.94;75.45
36852;BME280;22784;52.476;13.424;2022-08-19T18:51:34;100554.47;;;25.92;75.91
36852;BME280;22784;52.476;13.424;2022-08-19T18:55:43;100546.34;;;25.83;76.29
36852;BME280;22784;52.476;13.424;2022-08-19T18:59:49;100557.53;;;25.89;76.41
36852;BME280;22784;52.476;13.424;2022-08-19T19:03:59;100534.34;;;25.72;76.22
36852;BME280;22784;52.476;13.424;2022-08-19T19:08:03;100562.88;;;25.87;76.70
36852;BME280;22784;52.476;13.424;2022-08-19T19:12:11;100566.69;;;25.84;76.95
36852;BME280;22784;52.476;13.424;2022-08-19T19:16:15;100570.78;;;25.88;76.97
36852;BME280;22784;52.476;13.424;2022-08-19T19:20:18;100590.88;;;25.92;76.66
36852;BME280;22784;52.476;13.424;2022-08-19T19:24:30;100591.66;;;25.93;77.32
36852;BME280;22784;52.476;13.424;2022-08-19T19:28:40;100576.66;;;25.90;77.48
36852;BME280;22784;52.476;13.424;2022-08-19T19:32:45;100587.34;;;25.92;77.93
36852;BME280;22784;52.476;13.424;2022-08-19T19:36:50;100599.06;;;25.90;78.03
36852;BME280;22784;52.476;13.424;2022-08-19T19:40:54;100564.34;;;25.65;77.89
36852;BME280;22784;52.476;13.424;2022-08-19T19:45:00;100591.13;;;25.78;78.20
36852;BME280;22784;52.476;13.424;2022-08-19T19:49:05;100579.88;;;25.66;78.21
36852;BME280;22784;52.476;13.424;2022-08-19T19:53:09;100607.69;;;25.87;78.07
36852;BME280;22784;52.476;13.424;2022-08-19T19:57:17;100603.63;;;25.88;78.22
36852;BME280;22784;52.476;13.424;2022-08-19T20:01:25;100587.53;;;25.77;78.39
36852;BME280;22784;52.476;13.424;2022-08-19T20:05:29;100590.34;;;25.77;78.62
36852;BME280;22784;52.476;13.424;2022-08-19T20:09:32;100594.97;;;25.86;77.72
36852;BME280;22784;52.476;13.424;2022-08-19T20:13:36;100603.09;;;25.84;78.05
36852;BME280;22784;52.476;13.424;2022-08-19T20:17:43;100622.19;;;25.80;77.88
36852;BME280;22784;52.476;13.424;2022-08-19T20:21:48;100601.53;;;25.72;77.78
36852;BME280;22784;52.476;13.424;2022-08-19T20:25:55;100607.91;;;25.72;78.09
36852;BME280;22784;52.476;13.424;2022-08-19T20:30:00;100592.06;;;25.63;78.52
36852;BME280;22784;52.476;13.424;2022-08-19T20:34:07;100559.94;;;25.48;78.41
36852;BME280;22784;52.476;13.424;2022-08-19T20:38:11;100567.13;;;25.60;78.45
36852;BME280;22784;52.476;13.424;2022-08-19T20:42:15;100592.09;;;25.69;78.43
36852;BME280;22784;52.476;13.424;2022-08-19T20:46:19;100569.94;;;25.60;79.00
36852;BME280;22784;52.476;13.424;2022-08-19T20:50:25;100591.31;;;25.68;78.36
36852;BME280;22784;52.476;13.424;2022-08-19T20:54:29;100570.66;;;25.55;78.86
36852;BME280;22784;52.476;13.424;2022-08-19T20:58:34;100582.94;;;25.68;78.75
36852;BME280;22784;52.476;13.424;2022-08-19T21:02:38;100546.97;;;25.50;78.91
36852;BME280;22784;52.476;13.424;2022-08-19T21:06:44;100566.91;;;25.69;79.14
36852;BME280;22784;52.476;13.424;2022-08-19T21:10:49;100561.28;;;25.63;78.98